createdAt,value
2019-02-21T00:00:56.033Z,75.14
2019-02-21T00:03:26.906Z,75.17
2019-02-21T00:05:58.544Z,75.25
2019-02-21T00:08:29.104Z,75.29
2019-02-21T00:11:00.470Z,75.34
2019-02-21T00:13:31.624Z,75.10
2019-02-21T00:16:02.457Z,75.03
2019-02-21T00:18:34.380Z,75.16
2019-02-21T00:21:05.399Z,75.28
2019-02-21T00:23:36.342Z,75.27
2019-02-21T00:26:07.304Z,75.36
2019-02-21T00:28:37.914Z,75.36
2019-02-21T00:31:09.109Z,75.38
2019-02-21T00:33:40.411Z,75.47
2019-02-21T00:36:12.330Z,75.56
2019-02-21T00:38:43.295Z,75.75
2019-02-21T00:41:15.976Z,75.60
2019-02-21T00:43:46.964Z,75.70
2019-02-21T00:46:18.346Z,75.68
2019-02-21T00:48:51.105Z,75.75
2019-02-21T00:51:22.156Z,75.76
2019-02-21T00:53:53.095Z,75.79
2019-02-21T00:56:24.333Z,75.74
2019-02-21T00:58:55.234Z,75.78
2019-02-21T01:01:26.286Z,75.71
2019-02-21T01:03:57.934Z,75.91
2019-02-21T01:06:29.385Z,75.84
2019-02-21T01:09:00.408Z,75.86
2019-02-21T01:11:32.855Z,75.82
2019-02-21T01:14:04.064Z,75.78
2019-02-21T01:16:35.175Z,75.81
2019-02-21T01:19:05.860Z,75.71
2019-02-21T01:21:36.633Z,75.75
2019-02-21T01:24:07.510Z,75.67
2019-02-21T01:26:38.197Z,75.65
2019-02-21T01:29:09.038Z,75.73
2019-02-21T01:31:40.006Z,75.76
2019-02-21T01:34:10.916Z,75.72
2019-02-21T01:36:41.450Z,75.77
2019-02-21T01:39:12.134Z,75.77
2019-02-21T01:41:43.139Z,75.86
2019-02-21T01:44:14.248Z,75.86
2019-02-21T01:46:45.228Z,75.79
2019-02-21T01:49:16.303Z,75.88
2019-02-21T01:51:46.956Z,75.82
2019-02-21T01:54:17.714Z,75.97
2019-02-21T01:56:48.502Z,75.92
2019-02-21T01:59:19.444Z,76.01
2019-02-21T02:01:50.558Z,76.00
2019-02-21T02:04:21.951Z,76.14
2019-02-21T02:06:52.651Z,76.12
2019-02-21T02:09:23.649Z,75.89
2019-02-21T02:11:54.571Z,75.99
2019-02-21T02:14:25.537Z,75.92
2019-02-21T02:16:56.503Z,75.88
2019-02-21T02:19:27.501Z,76.07
2019-02-21T02:21:58.210Z,76.06
2019-02-21T02:24:29.098Z,75.98
2019-02-21T02:27:00.003Z,75.90
2019-02-21T02:29:32.314Z,75.90
2019-02-21T02:32:09.449Z,75.85
2019-02-21T02:34:38.297Z,75.87
2019-02-21T02:37:08.796Z,76.02
2019-02-21T02:39:39.685Z,75.96
2019-02-21T02:42:12.046Z,75.94
2019-02-21T02:44:42.688Z,75.91
2019-02-21T02:47:13.465Z,75.90
2019-02-21T02:49:44.916Z,76.01
2019-02-21T02:52:15.618Z,76.10
2019-02-21T02:54:46.608Z,75.98
2019-02-21T02:57:18.244Z,75.97
2019-02-21T02:59:48.959Z,76.00
2019-02-21T03:02:19.869Z,75.88
2019-02-21T03:04:50.949Z,75.88
2019-02-21T03:07:22.993Z,75.90
2019-02-21T03:09:54.017Z,75.86
2019-02-21T03:12:25.046Z,76.10
2019-02-21T03:14:55.945Z,75.92
2019-02-21T03:17:27.226Z,76.15
2019-02-21T03:19:57.836Z,76.29
2019-02-21T03:22:28.605Z,76.41
2019-02-21T03:24:59.611Z,76.40
2019-02-21T03:27:30.291Z,76.66
2019-02-21T03:30:01.442Z,76.59
2019-02-21T03:32:33.224Z,76.73
2019-02-21T03:35:04.669Z,76.74
2019-02-21T03:37:35.717Z,76.84
2019-02-21T03:40:08.879Z,76.90
2019-02-21T03:42:40.101Z,76.88
2019-02-21T03:45:13.614Z,76.72
2019-02-21T03:47:44.608Z,76.93
2019-02-21T03:50:15.965Z,76.95
2019-02-21T03:52:47.629Z,76.88
2019-02-21T03:55:19.054Z,77.01
2019-02-21T03:57:50.114Z,76.97
2019-02-21T04:00:20.855Z,76.95
2019-02-21T04:02:51.816Z,77.02
2019-02-21T04:05:22.618Z,77.05
2019-02-21T04:07:53.518Z,77.13
2019-02-21T04:10:24.147Z,77.02
2019-02-21T04:12:55.109Z,77.13
2019-02-21T04:15:25.766Z,77.21
2019-02-21T04:17:56.844Z,77.14
2019-02-21T04:20:27.608Z,76.94
2019-02-21T04:22:58.651Z,76.86
2019-02-21T04:25:29.753Z,76.81
2019-02-21T04:28:00.676Z,76.82
2019-02-21T04:30:31.608Z,76.73
2019-02-21T04:33:02.277Z,76.77
2019-02-21T04:35:33.533Z,76.45
2019-02-21T04:38:04.269Z,76.44
2019-02-21T04:40:34.845Z,76.48
2019-02-21T04:43:06.161Z,76.58
2019-02-21T04:45:37.118Z,76.12
2019-02-21T04:48:08.081Z,76.00
2019-02-21T04:50:39.163Z,76.29
2019-02-21T04:53:13.557Z,76.75
2019-02-21T04:55:44.735Z,76.69
2019-02-21T04:58:16.010Z,77.09
2019-02-21T05:00:47.385Z,77.71
2019-02-21T05:03:18.347Z,77.49
2019-02-21T05:05:49.461Z,77.36
2019-02-21T05:08:20.169Z,77.42
2019-02-21T05:10:51.111Z,77.34
2019-02-21T05:13:22.324Z,77.22
2019-02-21T05:15:53.195Z,77.33
2019-02-21T05:18:24.159Z,77.18
2019-02-21T05:20:55.910Z,77.02
2019-02-21T05:23:26.877Z,77.66
2019-02-21T05:25:57.699Z,77.60
2019-02-21T05:28:30.797Z,77.80
2019-02-21T05:31:03.476Z,78.73
2019-02-21T05:33:36.206Z,79.31
2019-02-21T05:36:08.848Z,80.40
2019-02-21T05:38:41.586Z,80.23
2019-02-21T05:41:13.955Z,80.93
2019-02-21T05:43:46.213Z,81.57
2019-02-21T05:46:18.565Z,81.55
2019-02-21T05:48:50.739Z,81.99
2019-02-21T05:51:23.882Z,81.99
2019-02-21T05:53:56.526Z,82.27
2019-02-21T05:56:28.918Z,82.41
2019-02-21T05:59:01.335Z,82.44
2019-02-21T06:01:34.307Z,82.58
2019-02-21T06:04:07.300Z,82.81
2019-02-21T06:06:40.023Z,83.14
2019-02-21T06:09:12.558Z,83.12
2019-02-21T06:11:44.967Z,83.36
2019-02-21T06:14:17.239Z,83.78
2019-02-21T06:16:49.872Z,83.66
2019-02-21T06:19:23.527Z,83.55
2019-02-21T06:21:54.311Z,83.35
2019-02-21T06:24:26.695Z,83.79
2019-02-21T06:27:00.910Z,83.83
2019-02-21T06:29:34.672Z,84.31
2019-02-21T06:32:13.814Z,84.46
2019-02-21T06:34:38.336Z,85.27
2019-02-21T06:37:09.199Z,85.58
2019-02-21T06:39:40.694Z,85.74
2019-02-21T06:42:11.812Z,86.17
2019-02-21T06:44:43.598Z,86.03
2019-02-21T06:47:14.825Z,87.00
2019-02-21T06:49:46.147Z,86.38
2019-02-21T06:52:17.675Z,86.77
2019-02-21T06:54:49.763Z,86.89
2019-02-21T06:57:20.831Z,86.98
2019-02-21T06:59:51.849Z,87.26
2019-02-21T07:02:23.359Z,86.61
2019-02-21T07:04:56.608Z,86.90
2019-02-21T07:07:27.069Z,87.08
2019-02-21T07:09:58.946Z,86.92
2019-02-21T07:12:30.229Z,87.01
2019-02-21T07:15:01.263Z,87.01
2019-02-21T07:17:32.539Z,87.00
2019-02-21T07:20:03.422Z,87.38
2019-02-21T07:22:35.823Z,87.39
2019-02-21T07:25:09.256Z,86.92
2019-02-21T07:27:40.094Z,87.25
2019-02-21T07:30:19.571Z,87.05
2019-02-21T07:32:45.646Z,87.29
2019-02-21T07:35:16.732Z,86.65
2019-02-21T07:37:48.028Z,86.44
2019-02-21T07:40:20.321Z,86.87
2019-02-21T07:42:53.417Z,86.71
2019-02-21T07:45:24.388Z,86.66
2019-02-21T07:47:55.655Z,86.38
2019-02-21T07:50:27.521Z,86.39
2019-02-21T07:53:02.409Z,86.51
2019-02-21T07:55:32.430Z,86.22
2019-02-21T07:58:04.246Z,86.93
2019-02-21T08:00:37.130Z,86.71
2019-02-21T08:03:09.176Z,86.43
2019-02-21T08:05:40.758Z,86.47
2019-02-21T08:08:11.831Z,87.03
2019-02-21T08:10:42.725Z,86.92
2019-02-21T08:13:14.051Z,87.05
2019-02-21T08:15:44.688Z,87.75
2019-02-21T08:18:16.449Z,87.99
2019-02-21T08:20:47.555Z,87.85
2019-02-21T08:23:18.931Z,87.95
2019-02-21T08:25:50.209Z,87.59
2019-02-21T08:28:21.286Z,88.09
2019-02-21T08:30:52.466Z,88.20
2019-02-21T08:33:25.711Z,88.11
2019-02-21T08:35:58.033Z,88.28
2019-02-21T08:38:29.431Z,87.95
2019-02-21T08:41:00.665Z,87.90
2019-02-21T08:43:32.020Z,88.25
2019-02-21T08:46:03.647Z,87.79
2019-02-21T08:48:34.682Z,88.49
2019-02-21T08:51:06.524Z,88.21
2019-02-21T08:53:37.970Z,88.77
2019-02-21T08:56:09.752Z,88.72
2019-02-21T08:58:41.270Z,88.96
2019-02-21T09:01:12.633Z,89.64
2019-02-21T09:03:43.660Z,88.96
2019-02-21T09:06:15.635Z,89.34
2019-02-21T09:08:46.726Z,89.72
2019-02-21T09:11:19.665Z,89.80
2019-02-21T09:13:50.812Z,89.68
2019-02-21T09:16:22.465Z,89.64
2019-02-21T09:18:54.549Z,89.85
2019-02-21T09:21:25.893Z,89.65
2019-02-21T09:23:58.509Z,90.05
2019-02-21T09:26:30.410Z,90.14
2019-02-21T09:29:02.361Z,90.08
2019-02-21T09:31:34.870Z,90.00
2019-02-21T09:34:06.617Z,90.36
2019-02-21T09:36:37.943Z,90.40
2019-02-21T09:39:09.094Z,90.41
2019-02-21T09:41:40.182Z,90.61
2019-02-21T09:44:11.415Z,90.76
2019-02-21T09:46:42.736Z,90.91
2019-02-21T09:49:14.439Z,90.82
2019-02-21T09:51:45.805Z,90.92
2019-02-21T09:54:19.150Z,90.78
2019-02-21T09:56:53.098Z,91.09
2019-02-21T09:59:23.469Z,91.18
2019-02-21T10:01:57.543Z,91.55
2019-02-21T10:04:32.239Z,91.34
2019-02-21T10:07:01.261Z,90.95
2019-02-21T10:09:34.041Z,90.61
2019-02-21T10:12:05.200Z,91.16
2019-02-21T10:14:36.730Z,90.88
2019-02-21T10:17:07.690Z,90.80
2019-02-21T10:19:39.438Z,91.06
2019-02-21T10:22:11.266Z,91.44
2019-02-21T10:24:42.507Z,90.77
2019-02-21T10:27:13.674Z,91.28
2019-02-21T10:29:44.912Z,90.68
2019-02-21T10:32:16.453Z,91.21
2019-02-21T10:34:48.017Z,91.18
2019-02-21T10:37:20.303Z,91.06
2019-02-21T10:39:52.077Z,90.95
2019-02-21T10:42:23.770Z,91.01
2019-02-21T10:44:54.719Z,90.75
2019-02-21T10:47:25.644Z,90.80
2019-02-21T10:49:57.107Z,91.05
2019-02-21T10:52:28.526Z,91.31
2019-02-21T10:55:00.416Z,90.41
2019-02-21T10:57:38.643Z,90.72
2019-02-21T11:00:13.422Z,90.91
2019-02-21T11:02:45.355Z,90.70
2019-02-21T11:05:16.316Z,90.69
2019-02-21T11:07:47.019Z,91.08
2019-02-21T11:10:21.039Z,90.48
2019-02-21T11:12:52.506Z,90.89
2019-02-21T11:15:24.817Z,91.26
2019-02-21T11:17:55.817Z,91.15
2019-02-21T11:20:27.048Z,91.09
2019-02-21T11:23:00.087Z,91.60
2019-02-21T11:25:33.293Z,91.89
2019-02-21T11:28:05.209Z,91.84
2019-02-21T11:30:36.734Z,92.06
2019-02-21T11:33:08.169Z,92.05
2019-02-21T11:35:39.310Z,91.94
2019-02-21T11:38:10.342Z,91.66
2019-02-21T11:40:41.415Z,91.60
2019-02-21T11:43:12.724Z,91.97
2019-02-21T11:45:53.591Z,91.84
2019-02-21T11:48:17.524Z,91.57
2019-02-21T11:50:49.369Z,92.00
2019-02-21T11:53:20.350Z,91.92
2019-02-21T11:55:52.471Z,91.84
2019-02-21T11:58:24.744Z,91.90
2019-02-21T12:00:56.998Z,92.21
2019-02-21T12:03:28.108Z,91.80
2019-02-21T12:05:59.476Z,91.94
2019-02-21T12:08:30.947Z,91.84
2019-02-21T12:11:03.721Z,92.07
2019-02-21T12:13:34.959Z,92.27
2019-02-21T12:16:06.771Z,91.88
2019-02-21T12:18:38.036Z,91.85
2019-02-21T12:21:10.158Z,91.69
2019-02-21T12:23:41.606Z,91.97
2019-02-21T12:26:13.626Z,92.18
2019-02-21T12:28:45.656Z,91.53
2019-02-21T12:31:22.867Z,91.76
2019-02-21T12:33:56.001Z,92.20
2019-02-21T12:36:27.619Z,92.15
2019-02-21T12:38:58.977Z,91.40
2019-02-21T12:41:31.095Z,91.69
2019-02-21T12:44:02.865Z,91.52
2019-02-21T12:46:34.058Z,91.37
2019-02-21T12:49:05.640Z,91.39
2019-02-21T12:51:37.126Z,91.34
2019-02-21T12:54:09.852Z,91.15
2019-02-21T12:56:42.315Z,91.41
2019-02-21T12:59:13.498Z,91.34
2019-02-21T13:01:45.857Z,91.72
2019-02-21T13:04:17.501Z,92.13
2019-02-21T13:06:49.030Z,91.48
2019-02-21T13:09:20.368Z,91.46
2019-02-21T13:11:52.171Z,91.67
2019-02-21T13:14:23.311Z,91.46
2019-02-21T13:16:55.111Z,91.35
2019-02-21T13:19:26.570Z,91.15
2019-02-21T13:21:57.991Z,91.20
2019-02-21T13:24:28.770Z,90.83
2019-02-21T13:27:00.190Z,90.92
2019-02-21T13:29:32.319Z,90.60
2019-02-21T13:32:04.206Z,90.84
2019-02-21T13:34:38.730Z,91.02
2019-02-21T13:37:13.485Z,91.10
2019-02-21T13:39:47.710Z,91.08
2019-02-21T13:42:19.772Z,91.27
2019-02-21T13:44:55.153Z,91.43
2019-02-21T13:47:26.431Z,90.96
2019-02-21T13:49:58.326Z,91.14
2019-02-21T13:52:29.642Z,90.79
2019-02-21T13:55:01.613Z,91.16
2019-02-21T13:57:32.982Z,91.05
2019-02-21T14:00:03.962Z,91.05
2019-02-21T14:02:36.391Z,91.12
2019-02-21T14:05:07.910Z,91.12
2019-02-21T14:07:39.833Z,91.01
2019-02-21T14:10:12.131Z,91.13
2019-02-21T14:12:43.992Z,91.17
2019-02-21T14:15:18.367Z,90.97
2019-02-21T14:17:52.038Z,91.04
2019-02-21T14:20:24.033Z,90.58
2019-02-21T14:22:54.732Z,90.68
2019-02-21T14:25:28.310Z,90.68
2019-02-21T14:27:59.392Z,90.59
2019-02-21T14:30:30.591Z,90.99
2019-02-21T14:33:00.965Z,90.64
2019-02-21T14:35:31.384Z,90.73
2019-02-21T14:38:01.865Z,90.99
2019-02-21T14:40:32.224Z,90.83
2019-02-21T14:43:17.422Z,90.96
2019-02-21T14:46:00.627Z,91.16
2019-02-21T14:48:46.752Z,91.11
2019-02-21T14:51:39.168Z,90.93
2019-02-21T14:54:18.111Z,91.10
2019-02-21T14:56:48.800Z,90.88
2019-02-21T14:59:21.424Z,90.89
2019-02-21T15:01:52.290Z,90.81
2019-02-21T15:04:22.671Z,90.93
2019-02-21T15:06:53.983Z,90.90
2019-02-21T15:09:26.257Z,90.88
2019-02-21T15:11:56.626Z,91.16
2019-02-21T15:14:27.135Z,91.15
2019-02-21T15:16:57.680Z,91.22
2019-02-21T15:19:28.102Z,91.43
2019-02-21T15:21:59.602Z,91.35
2019-02-21T15:24:30.009Z,91.52
2019-02-21T15:27:08.126Z,91.28
2019-02-21T15:29:32.592Z,91.42
2019-02-21T15:32:11.227Z,91.26
2019-02-21T15:34:39.026Z,91.24
2019-02-21T15:37:09.302Z,91.35
2019-02-21T15:39:39.620Z,91.29
2019-02-21T15:42:10.064Z,91.30
2019-02-21T15:44:40.404Z,91.24
2019-02-21T15:47:11.767Z,91.20
2019-02-21T15:49:42.205Z,90.97
2019-02-21T15:52:21.741Z,90.96
2019-02-21T15:54:44.711Z,91.03
2019-02-21T15:57:15.056Z,91.13
2019-02-21T15:59:45.610Z,90.98
2019-02-21T16:02:16.110Z,91.33
2019-02-21T16:04:46.532Z,91.36
2019-02-21T16:07:16.876Z,91.43
2019-02-21T16:09:47.226Z,91.59
2019-02-21T16:12:18.284Z,91.64
2019-02-21T16:14:49.169Z,91.70
2019-02-21T16:17:19.438Z,91.68
2019-02-21T16:19:49.825Z,91.78
2019-02-21T16:22:20.176Z,91.69
2019-02-21T16:24:50.552Z,91.67
2019-02-21T16:27:20.994Z,91.50
2019-02-21T16:29:51.275Z,91.54
2019-02-21T16:32:22.056Z,91.63
2019-02-21T16:34:53.512Z,91.55
2019-02-21T16:37:24.473Z,91.61
2019-02-21T16:39:57.353Z,91.53
2019-02-21T16:42:34.916Z,91.60
2019-02-21T16:45:19.304Z,91.45
2019-02-21T16:47:50.185Z,91.44
2019-02-21T16:50:29.772Z,91.35
2019-02-21T16:53:09.513Z,91.27
2019-02-21T16:55:49.614Z,91.23
2019-02-21T16:58:24.647Z,91.12
2019-02-21T17:00:56.807Z,91.06
2019-02-21T17:03:27.292Z,90.95
2019-02-21T17:05:59.441Z,90.85
2019-02-21T17:08:29.913Z,91.08
2019-02-21T17:11:00.590Z,91.19
2019-02-21T17:13:31.735Z,91.15
2019-02-21T17:16:02.670Z,91.18
2019-02-21T17:18:34.151Z,91.36
2019-02-21T17:21:06.431Z,91.47
2019-02-21T17:23:37.350Z,91.46
2019-02-21T17:26:07.925Z,91.34
2019-02-21T17:28:38.552Z,91.54
2019-02-21T17:31:08.951Z,91.43
2019-02-21T17:33:39.297Z,91.41
2019-02-21T17:36:09.851Z,91.47
2019-02-21T17:38:40.538Z,91.47
2019-02-21T17:41:11.227Z,91.38
2019-02-21T17:43:41.715Z,91.26
2019-02-21T17:46:12.017Z,91.26
2019-02-21T17:48:43.247Z,91.23
2019-02-21T17:51:13.756Z,91.09
2019-02-21T17:53:44.252Z,91.09
2019-02-21T17:56:14.608Z,90.98
2019-02-21T17:58:45.215Z,91.00
2019-02-21T18:01:15.666Z,91.12
2019-02-21T18:03:46.037Z,91.19
2019-02-21T18:06:16.375Z,91.09
2019-02-21T18:09:04.305Z,91.17
2019-02-21T18:11:36.255Z,91.33
2019-02-21T18:14:06.478Z,91.38
2019-02-21T18:16:36.904Z,91.64
2019-02-21T18:19:07.237Z,91.66
2019-02-21T18:21:37.554Z,91.77
2019-02-21T18:24:07.838Z,91.70
2019-02-21T18:26:38.193Z,91.81
2019-02-21T18:29:08.462Z,91.96
2019-02-21T18:31:38.812Z,92.29
2019-02-21T18:34:09.211Z,92.42
2019-02-21T18:36:39.528Z,92.66
2019-02-21T18:39:09.826Z,92.83
2019-02-21T18:41:40.602Z,92.84
2019-02-21T18:44:10.887Z,92.99
2019-02-21T18:46:41.242Z,92.94
2019-02-21T18:49:11.635Z,93.15
2019-02-21T18:51:42.000Z,93.30
2019-02-21T18:54:12.288Z,93.47
2019-02-21T18:56:42.922Z,93.46
2019-02-21T18:59:13.233Z,93.49
2019-02-21T19:01:43.701Z,93.50
2019-02-21T19:04:14.027Z,93.58
2019-02-21T19:06:44.323Z,93.55
2019-02-21T19:09:14.625Z,93.39
2019-02-21T19:11:45.034Z,93.45
2019-02-21T19:14:15.292Z,93.45
2019-02-21T19:16:46.617Z,93.33
2019-02-21T19:19:16.889Z,93.34
2019-02-21T19:21:47.163Z,93.40
2019-02-21T19:24:17.518Z,93.40
2019-02-21T19:26:47.908Z,93.30
2019-02-21T19:29:19.484Z,93.41
2019-02-21T19:31:49.780Z,93.26
2019-02-21T19:34:20.061Z,93.28
2019-02-21T19:36:51.440Z,93.21
2019-02-21T19:39:21.744Z,93.07
2019-02-21T19:41:52.090Z,92.95
2019-02-21T19:44:22.515Z,92.83
2019-02-21T19:46:52.926Z,92.80
2019-02-21T19:49:23.192Z,92.75
2019-02-21T19:51:53.690Z,92.73
2019-02-21T19:54:24.915Z,92.76
2019-02-21T19:56:55.208Z,92.66
2019-02-21T19:59:25.547Z,92.74
2019-02-21T20:01:56.016Z,92.74
2019-02-21T20:04:26.657Z,92.71
2019-02-21T20:06:57.124Z,92.66
2019-02-21T20:09:29.501Z,92.50
2019-02-21T20:11:59.827Z,92.54
2019-02-21T20:14:30.165Z,92.22
2019-02-21T20:17:00.610Z,92.05
2019-02-21T20:19:31.441Z,92.15
2019-02-21T20:22:02.708Z,91.94
2019-02-21T20:24:32.984Z,91.92
2019-02-21T20:27:03.395Z,92.00
2019-02-21T20:29:35.279Z,91.97
2019-02-21T20:32:05.596Z,91.99
2019-02-21T20:34:36.078Z,91.89
2019-02-21T20:37:06.347Z,92.03
2019-02-21T20:39:36.743Z,92.27
2019-02-21T20:42:08.172Z,92.29
2019-02-21T20:44:38.812Z,92.51
2019-02-21T20:47:09.165Z,92.48
2019-02-21T20:49:39.633Z,92.71
2019-02-21T20:52:09.951Z,92.88
2019-02-21T20:54:41.272Z,93.08
2019-02-21T20:57:11.560Z,93.17
2019-02-21T20:59:41.952Z,93.22
2019-02-21T21:02:12.263Z,93.37
2019-02-21T21:04:42.959Z,93.50
2019-02-21T21:07:13.269Z,93.51
2019-02-21T21:09:44.699Z,93.49
2019-02-21T21:12:15.078Z,93.63
2019-02-21T21:14:45.395Z,93.70
2019-02-21T21:17:15.739Z,93.59
2019-02-21T21:19:46.206Z,93.66
2019-02-21T21:22:16.491Z,93.59
2019-02-21T21:24:46.831Z,93.53
2019-02-21T21:27:17.221Z,93.52
2019-02-21T21:29:47.519Z,93.59
2019-02-21T21:32:17.813Z,93.61
2019-02-21T21:34:48.160Z,93.57
2019-02-21T21:37:19.191Z,93.36
2019-02-21T21:39:50.690Z,93.34
2019-02-21T21:42:22.147Z,93.23
2019-02-21T21:44:53.633Z,93.36
2019-02-21T21:47:28.408Z,93.30
2019-02-21T21:50:02.227Z,93.20
2019-02-21T21:52:35.229Z,93.18
2019-02-21T21:55:06.524Z,93.11
2019-02-21T21:57:37.947Z,92.94
2019-02-21T22:00:13.011Z,93.07
2019-02-21T22:02:45.939Z,92.95
2019-02-21T22:05:17.900Z,92.79
2019-02-21T22:07:49.876Z,92.85
2019-02-21T22:10:22.479Z,92.92
2019-02-21T22:12:54.300Z,92.94
2019-02-21T22:15:26.018Z,92.78
2019-02-21T22:17:57.543Z,92.72
2019-02-21T22:20:29.556Z,92.63
2019-02-21T22:23:02.096Z,92.69
2019-02-21T22:25:33.301Z,92.61
2019-02-21T22:28:05.474Z,92.62
2019-02-21T22:30:38.062Z,92.60
2019-02-21T22:33:09.750Z,92.64
2019-02-21T22:35:40.838Z,92.57
2019-02-21T22:38:11.698Z,92.47
2019-02-21T22:40:42.818Z,92.58
2019-02-21T22:43:14.040Z,92.50
2019-02-21T22:45:45.501Z,92.50
2019-02-21T22:48:17.057Z,92.57
2019-02-21T22:50:47.959Z,92.55
2019-02-21T22:53:19.664Z,92.50
2019-02-21T22:55:50.779Z,92.50
2019-02-21T22:58:21.809Z,92.46
2019-02-21T23:00:58.206Z,92.36
2019-02-21T23:03:32.962Z,92.26
2019-02-21T23:06:07.080Z,92.18
2019-02-21T23:08:39.227Z,92.24
2019-02-21T23:11:09.736Z,91.96
2019-02-21T23:13:41.900Z,91.88
2019-02-21T23:16:12.332Z,91.68
2019-02-21T23:18:43.241Z,91.55
2019-02-21T23:21:14.692Z,91.32
2019-02-21T23:23:46.487Z,91.44
2019-02-21T23:26:17.653Z,91.50
2019-02-21T23:28:49.338Z,91.57
2019-02-21T23:31:20.538Z,91.43
2019-02-21T23:33:52.696Z,91.78
2019-02-21T23:36:23.468Z,91.83
2019-02-21T23:38:55.640Z,92.01
2019-02-21T23:41:27.682Z,92.14
2019-02-21T23:43:58.540Z,92.30
2019-02-21T23:46:29.679Z,92.46
2019-02-21T23:49:00.678Z,92.69
2019-02-21T23:51:32.619Z,92.84
2019-02-21T23:54:03.763Z,92.82
2019-02-21T23:56:35.818Z,93.03
2019-02-21T23:59:07.319Z,93.25
